Time;durP1;ratioP1;P1;durP2;ratioP2;P2;SDS_P1;SDS_P2;PMS_P1;PMS_P2;Temp;Humidity;BMP_temperature;BMP_pressure;BME280_temperature;BME280_humidity;BME280_pressure;Samples;Min_cycle;Max_cycle;Signal;HPM_P1;HPM_P2
2022/03/14 00:01:50;;;;;;;51.40;30.80;;;;;;;-0.29;60.10;100013.34;105303;1271;61935;-74
2022/03/14 00:04:17;;;;;;;48.80;30.10;;;;;;;-0.27;59.75;100018.40;104973;1271;61984;-74
2022/03/14 00:06:49;;;;;;;50.10;32.30;;;;;;;-0.28;60.28;100020.86;105232;1271;75926;-72
2022/03/14 00:09:18;;;;;;;49.60;30.70;;;;;;;-0.27;60.28;100025.91;105202;1271;69499;-73
2022/03/14 00:11:45;;;;;;;48.60;30.50;;;;;;;-0.28;60.31;100027.48;105199;1271;73492;-73
2022/03/14 00:14:13;;;;;;;52.30;30.30;;;;;;;-0.28;60.66;100027.48;105109;1271;62080;-73
2022/03/14 00:16:41;;;;;;;49.80;29.70;;;;;;;-0.27;60.65;100023.98;105165;1271;61939;-74
2022/03/14 00:19:07;;;;;;;49.00;30.30;;;;;;;-0.25;60.97;100025.20;105208;1270;76511;-74
2022/03/14 00:21:38;;;;;;;47.50;29.00;;;;;;;-0.24;61.25;100024.14;105217;1270;70462;-73
2022/03/14 00:24:09;;;;;;;51.40;30.10;;;;;;;-0.24;60.97;100023.09;105189;1270;73223;-73
2022/03/14 00:26:36;;;;;;;41.40;28.00;;;;;;;-0.26;61.45;100022.58;105287;1274;62197;-73
2022/03/14 00:29:03;;;;;;;48.20;30.10;;;;;;;-0.28;61.48;100025.40;105136;1270;62085;-72
2022/03/14 00:31:30;;;;;;;50.40;30.70;;;;;;;-0.30;61.84;100023.13;104371;1269;1002988;-74
2022/03/14 00:33:57;;;;;;;48.50;30.10;;;;;;;-0.31;62.13;100025.23;105168;1270;69515;-73
2022/03/14 00:36:27;;;;;;;45.80;29.30;;;;;;;-0.34;62.21;100025.42;105189;1270;73032;-73
2022/03/14 00:38:54;;;;;;;46.10;29.70;;;;;;;-0.39;62.19;100025.64;105121;1270;62102;-73
2022/03/14 00:41:22;;;;;;;47.80;30.10;;;;;;;-0.44;62.45;100021.82;105162;1270;62023;-72
2022/03/14 00:43:49;;;;;;;54.00;31.00;;;;;;;-0.47;62.79;100033.89;105113;1270;77055;-72
2022/03/14 00:46:17;;;;;;;49.60;30.30;;;;;;;-0.51;62.79;100036.53;105169;1270;69214;-75
2022/03/14 00:48:45;;;;;;;48.10;29.40;;;;;;;-0.55;62.95;100034.80;104975;1272;73073;-73
2022/03/14 00:51:13;;;;;;;54.10;32.20;;;;;;;-0.58;63.56;100031.51;105203;1271;62420;-73
2022/03/14 00:53:39;;;;;;;43.20;29.50;;;;;;;-0.59;63.29;100033.08;105028;1270;260315;-73
2022/03/14 00:56:07;;;;;;;49.00;31.20;;;;;;;-0.62;63.61;100031.70;105140;1269;76189;-73
2022/03/14 00:58:34;;;;;;;48.00;30.70;;;;;;;-0.63;63.46;100037.98;105165;1270;70215;-73
2022/03/14 01:01:01;;;;;;;50.40;31.20;;;;;;;-0.64;63.62;100035.37;105151;1270;73642;-73
2022/03/14 01:03:28;;;;;;;55.60;31.50;;;;;;;-0.67;63.91;100036.59;105192;1270;62101;-73
2022/03/14 01:05:55;;;;;;;47.00;29.70;;;;;;;-0.68;64.08;100041.50;104917;1271;62312;-73
2022/03/14 01:08:22;;;;;;;51.50;32.60;;;;;;;-0.69;64.23;100040.44;105162;1270;74843;-73
2022/03/14 01:10:48;;;;;;;53.50;32.50;;;;;;;-0.71;64.02;100041.16;105216;1270;70274;-74
2022/03/14 01:13:15;;;;;;;46.60;30.30;;;;;;;-0.74;64.22;100045.19;105199;1270;73590;-74
2022/03/14 01:15:41;;;;;;;54.80;33.20;;;;;;;-0.80;64.18;100046.44;105204;1270;62071;-74
2022/03/14 01:18:08;;;;;;;47.30;31.30;;;;;;;-0.87;64.45;100046.64;105209;1270;62174;-73
2022/03/14 01:20:34;;;;;;;52.40;30.10;;;;;;;-0.92;64.88;100046.48;105201;1270;75336;-73
2022/03/14 01:23:02;;;;;;;49.50;31.00;;;;;;;-0.96;64.56;100045.61;105031;1270;70130;-73
2022/03/14 01:25:29;;;;;;;55.40;33.80;;;;;;;-1.01;65.32;100047.39;105198;1270;73207;-75
2022/03/14 01:27:55;;;;;;;55.50;31.70;;;;;;;-1.02;65.28;100050.34;105157;1271;62072;-74
2022/03/14 01:30:22;;;;;;;54.20;32.90;;;;;;;-1.04;65.45;100050.17;105198;1270;61954;-74
2022/03/14 01:32:49;;;;;;;55.10;34.00;;;;;;;-1.07;65.53;100052.27;105168;1270;76915;-73
2022/03/14 01:35:17;;;;;;;54.10;33.40;;;;;;;-1.10;65.65;100048.80;105178;1270;70314;-73
2022/03/14 01:37:47;;;;;;;57.40;34.10;;;;;;;-1.13;65.78;100052.83;105468;1270;72849;-74
2022/03/14 01:40:14;;;;;;;56.00;35.70;;;;;;;-1.15;65.91;100052.13;105186;1270;62111;-73
2022/03/14 01:42:41;;;;;;;52.80;34.20;;;;;;;-1.17;66.36;100054.91;105165;1270;62125;-73
2022/03/14 01:45:10;;;;;;;52.90;33.60;;;;;;;-1.15;66.24;100057.52;105201;1270;77099;-74
2022/03/14 01:47:39;;;;;;;50.90;33.30;;;;;;;-1.14;66.25;100059.09;105259;1270;69247;-73
2022/03/14 01:50:06;;;;;;;55.30;34.40;;;;;;;-1.14;66.65;100064.33;105201;1270;73367;-72
2022/03/14 01:52:32;;;;;;;59.00;35.80;;;;;;;-1.13;66.67;100072.35;105218;1270;62109;-73
2022/03/14 01:55:01;;;;;;;61.50;35.10;;;;;;;-1.14;66.67;100077.06;105147;1270;62035;-73
2022/03/14 01:57:32;;;;;;;58.90;34.70;;;;;;;-1.18;66.71;100074.45;105265;1270;76421;-73
2022/03/14 01:59:59;;;;;;;53.00;34.80;;;;;;;-1.24;66.84;100080.04;105306;1270;68154;-72
2022/03/14 02:02:26;;;;;;;57.00;35.90;;;;;;;-1.30;66.82;100085.80;105307;1270;71830;-72
2022/03/14 02:04:53;;;;;;;57.30;35.20;;;;;;;-1.36;66.92;100085.63;105212;1270;62168;-72
2022/03/14 02:07:20;;;;;;;56.70;35.40;;;;;;;-1.42;67.10;100089.98;105237;1270;62519;-72
2022/03/14 02:09:47;;;;;;;58.60;36.40;;;;;;;-1.48;67.09;100094.02;105231;1270;76562;-73
2022/03/14 02:12:13;;;;;;;55.20;35.30;;;;;;;-1.54;67.30;100091.91;105093;1270;62008;-74
2022/03/14 02:14:40;;;;;;;60.50;35.90;;;;;;;-1.57;67.71;100090.34;104956;1270;62321;-73
2022/03/14 02:17:12;;;;;;;63.50;37.10;;;;;;;-1.58;67.91;100086.52;105169;1270;63666;-73
2022/03/14 02:19:40;;;;;;;55.20;35.50;;;;;;;-1.58;68.07;100092.61;105298;1271;62351;-74
2022/03/14 02:22:13;;;;;;;54.10;34.10;;;;;;;-1.55;68.30;100095.41;105284;1270;77108;-73
2022/03/14 02:24:42;;;;;;;59.10;35.00;;;;;;;-1.53;68.16;100093.66;105191;1269;69234;-73
2022/03/14 02:27:08;;;;;;;60.40;35.70;;;;;;;-1.52;68.24;100094.71;105331;1270;74308;-73
2022/03/14 02:29:35;;;;;;;57.50;35.90;;;;;;;-1.51;68.28;100096.63;105191;1270;62152;-72
2022/03/14 02:32:02;;;;;;;59.90;37.50;;;;;;;-1.53;68.32;100098.02;105202;1270;62059;-73
2022/03/14 02:34:28;;;;;;;58.30;36.80;;;;;;;-1.56;68.34;100099.94;105140;1270;77141;-73
2022/03/14 02:36:55;;;;;;;57.40;36.60;;;;;;;-1.61;68.52;100100.27;102193;1270;1003065;-73
2022/03/14 02:39:22;;;;;;;58.10;36.40;;;;;;;-1.64;68.68;100103.42;105171;1270;62092;-73
2022/03/14 02:41:49;;;;;;;68.80;40.50;;;;;;;-1.69;68.74;100103.77;105189;1270;62189;-74
2022/03/14 02:44:16;;;;;;;62.10;36.50;;;;;;;-1.74;68.90;100103.95;104954;1270;62399;-72
2022/03/14 02:46:42;;;;;;;70.00;41.80;;;;;;;-1.81;69.00;100107.07;105199;1270;76179;-73
2022/03/14 02:49:11;;;;;;;66.40;41.00;;;;;;;-1.86;69.20;100107.05;105194;1270;70329;-73
2022/03/14 02:51:39;;;;;;;66.80;43.20;;;;;;;-1.91;69.23;100105.84;105202;1270;74416;-73
2022/03/14 02:54:08;;;;;;;61.60;39.40;;;;;;;-1.96;69.41;100110.35;105193;1270;62114;-73
2022/03/14 02:56:36;;;;;;;61.50;38.80;;;;;;;-1.99;69.50;100109.64;105233;1270;62036;-73
2022/03/14 02:59:05;;;;;;;63.70;37.20;;;;;;;-1.97;69.88;100114.88;105250;1270;76094;-73
2022/03/14 03:01:33;;;;;;;61.70;37.10;;;;;;;-1.95;70.01;100115.06;105204;1270;70382;-74
2022/03/14 03:04:00;;;;;;;61.60;37.40;;;;;;;-1.91;70.15;100110.72;105182;1270;73184;-73
2022/03/14 03:06:27;;;;;;;60.50;38.50;;;;;;;-1.90;70.20;100115.40;105189;1270;62021;-74
2022/03/14 03:08:55;;;;;;;61.20;39.50;;;;;;;-1.91;70.31;100112.98;105208;1270;62213;-73
2022/03/14 03:11:22;;;;;;;67.20;41.70;;;;;;;-1.92;70.53;100115.94;105183;1270;76289;-73
2022/03/14 03:13:49;;;;;;;69.10;41.30;;;;;;;-1.95;70.55;100117.32;105201;1270;70154;-73
2022/03/14 03:16:16;;;;;;;65.00;41.00;;;;;;;-1.99;70.80;100115.58;105215;1270;73862;-73
2022/03/14 03:18:44;;;;;;;58.10;38.40;;;;;;;-2.01;70.71;100122.20;105221;1270;62133;-73
2022/03/14 03:21:11;;;;;;;65.80;39.90;;;;;;;-2.05;70.83;100124.63;105204;1270;62073;-73
2022/03/14 03:23:41;;;;;;;66.00;42.50;;;;;;;-2.10;71.34;100129.13;105206;1270;74207;-73
2022/03/14 03:26:08;;;;;;;69.60;43.80;;;;;;;-2.12;71.37;100127.91;104226;1271;1003856;-73
2022/03/14 03:28:35;;;;;;;62.90;41.10;;;;;;;-2.14;71.34;100128.94;105133;1270;73219;-73
2022/03/14 03:31:07;;;;;;;62.20;39.50;;;;;;;-2.16;71.51;100136.24;104945;1273;62143;-74
2022/03/14 03:33:35;;;;;;;54.90;36.20;;;;;;;-2.18;71.63;100134.17;105251;1271;62180;-74
2022/03/14 03:36:06;;;;;;;58.60;35.60;;;;;;;-2.16;72.06;100134.33;105161;1270;75864;-74
2022/03/14 03:38:34;;;;;;;55.30;36.80;;;;;;;-2.14;72.24;100133.48;105229;1270;70068;-74
2022/03/14 03:41:01;;;;;;;62.50;36.80;;;;;;;-2.11;72.36;100138.01;105139;1270;74379;-74
2022/03/14 03:43:28;;;;;;;60.40;37.70;;;;;;;-2.12;72.25;100135.91;105156;1270;62404;-74
2022/03/14 03:45:54;;;;;;;62.60;39.80;;;;;;;-2.11;72.07;100142.88;105175;1270;62178;-73
2022/03/14 03:48:21;;;;;;;65.70;40.10;;;;;;;-2.15;72.39;100138.52;105224;1269;74396;-74
2022/03/14 03:50:48;;;;;;;56.10;36.60;;;;;;;-2.16;72.58;100141.81;105251;1270;70289;-73
2022/03/14 03:53:14;;;;;;;65.20;39.60;;;;;;;-2.16;72.68;100146.69;105204;1270;72689;-74
2022/03/14 03:55:41;;;;;;;65.60;40.00;;;;;;;-2.14;73.07;100148.45;105180;1270;62071;-74
2022/03/14 03:58:08;;;;;;;60.30;37.60;;;;;;;-2.13;73.11;100146.88;105194;1270;62089;-74
2022/03/14 04:00:34;;;;;;;61.40;38.90;;;;;;;-2.10;72.95;100147.58;105194;1270;77058;-74
2022/03/14 04:03:01;;;;;;;60.50;36.90;;;;;;;-2.06;73.00;100152.83;105069;1270;69432;-74
2022/03/14 04:05:30;;;;;;;61.00;38.30;;;;;;;-2.03;73.01;100155.80;105210;1270;74251;-73
2022/03/14 04:08:00;;;;;;;59.20;38.90;;;;;;;-2.02;72.92;100156.67;105240;1270;62127;-74
2022/03/14 04:10:30;;;;;;;62.90;40.00;;;;;;;-2.03;72.91;100159.27;105269;1270;62193;-74
2022/03/14 04:13:01;;;;;;;66.40;41.20;;;;;;;-2.06;72.99;100158.91;105200;1270;76485;-74
2022/03/14 04:15:28;;;;;;;57.00;38.90;;;;;;;-2.11;73.01;100158.55;105226;1270;69462;-73
2022/03/14 04:18:00;;;;;;;63.10;40.90;;;;;;;-2.15;73.20;100161.67;105230;1270;73389;-75
2022/03/14 04:20:26;;;;;;;63.60;42.10;;;;;;;-2.19;73.05;100162.88;105137;1270;62092;-73
2022/03/14 04:22:53;;;;;;;65.70;39.70;;;;;;;-2.23;73.24;100167.92;105196;1270;62105;-74
2022/03/14 04:25:19;;;;;;;61.30;39.30;;;;;;;-2.25;73.25;100169.47;105193;1270;62163;-75
2022/03/14 04:27:46;;;;;;;60.80;39.30;;;;;;;-2.27;73.44;100169.81;105187;1270;61977;-73
2022/03/14 04:30:16;;;;;;;60.80;41.00;;;;;;;-2.27;73.50;100174.67;105192;1270;61971;-75
2022/03/14 04:32:43;;;;;;;60.40;39.70;;;;;;;-2.27;73.60;100173.80;105260;1270;62127;-74
2022/03/14 04:35:10;;;;;;;66.10;42.50;;;;;;;-2.29;73.63;100169.27;105194;1270;62079;-73
2022/03/14 04:37:37;;;;;;;69.30;42.40;;;;;;;-2.32;73.85;100174.31;105241;1270;77304;-74
2022/03/14 04:40:04;;;;;;;64.50;40.90;;;;;;;-2.34;73.79;100175.70;104992;1270;68269;-74
2022/03/14 04:42:32;;;;;;;71.10;42.10;;;;;;;-2.40;73.99;100172.71;105218;1270;73413;-73
2022/03/14 04:44:59;;;;;;;72.40;43.10;;;;;;;-2.45;74.21;100171.13;105158;1270;62294;-74
2022/03/14 04:47:26;;;;;;;67.00;41.30;;;;;;;-2.48;74.40;100173.72;103738;1270;1003066;-73
2022/03/14 04:49:53;;;;;;;66.30;41.70;;;;;;;-2.50;74.31;100174.74;105182;1270;77210;-73
2022/03/14 04:52:21;;;;;;;62.70;41.10;;;;;;;-2.50;74.48;100176.49;104997;1270;68668;-74
2022/03/14 04:54:48;;;;;;;63.80;41.20;;;;;;;-2.49;74.83;100181.73;105011;1270;71475;-73
2022/03/14 04:57:15;;;;;;;68.20;43.10;;;;;;;-2.48;74.98;100176.85;105231;1270;62122;-74
2022/03/14 04:59:41;;;;;;;66.70;42.50;;;;;;;-2.47;75.11;100176.34;105269;1270;62030;-73
2022/03/14 05:02:08;;;;;;;71.60;43.40;;;;;;;-2.45;75.18;100179.48;105223;1270;62053;-74
2022/03/14 05:04:35;;;;;;;66.80;43.00;;;;;;;-2.45;75.06;100176.52;105267;1270;62218;-74
2022/03/14 05:07:02;;;;;;;70.00;42.30;;;;;;;-2.45;75.21;100179.48;105535;1270;72741;-74
2022/03/14 05:09:29;;;;;;;75.90;46.80;;;;;;;-2.47;75.11;100181.05;105028;1271;62174;-74
2022/03/14 05:11:55;;;;;;;72.40;46.60;;;;;;;-2.47;75.59;100180.52;105268;1270;62490;-73
2022/03/14 05:14:22;;;;;;;72.90;43.40;;;;;;;-2.47;75.40;100177.73;105302;1270;62069;-73
2022/03/14 05:16:48;;;;;;;69.40;43.10;;;;;;;-2.46;75.53;100180.17;105197;1270;62537;-75
2022/03/14 05:19:15;;;;;;;64.30;41.20;;;;;;;-2.42;75.78;100184.02;105270;1270;62105;-73
2022/03/14 05:21:41;;;;;;;64.80;42.20;;;;;;;-2.38;75.93;100181.08;105546;1268;62034;-72
2022/03/14 05:24:09;;;;;;;64.60;41.50;;;;;;;-2.23;75.54;100185.49;105390;1270;62660;-73
2022/03/14 05:26:36;;;;;;;72.20;42.90;;;;;;;-2.11;75.27;100185.55;105240;1270;76087;-73
2022/03/14 05:29:03;;;;;;;68.60;41.60;;;;;;;-1.84;75.22;100188.92;105330;1270;69504;-72
2022/03/14 05:31:30;;;;;;;72.60;45.80;;;;;;;-1.60;74.70;100193.86;105280;1270;71307;-73
2022/03/14 05:33:56;;;;;;;72.60;44.70;;;;;;;-1.39;74.31;100193.89;105322;1270;62213;-73
2022/03/14 05:36:23;;;;;;;75.30;46.70;;;;;;;-1.20;73.86;100193.02;105078;1271;62169;-74
2022/03/14 05:38:49;;;;;;;70.40;43.90;;;;;;;-1.01;73.53;100194.93;105317;1270;62152;-74
2022/03/14 05:41:16;;;;;;;69.10;43.20;;;;;;;-0.82;73.01;100195.25;105311;1270;68985;-73
2022/03/14 05:43:43;;;;;;;63.90;41.50;;;;;;;-0.61;72.84;100195.40;105226;1268;62108;-73
2022/03/14 05:46:09;;;;;;;65.70;42.90;;;;;;;-0.44;72.38;100196.76;105212;1270;62117;-74
2022/03/14 05:48:37;;;;;;;68.40;44.20;;;;;;;-0.29;72.10;100199.15;105254;1270;62204;-75
2022/03/14 05:51:04;;;;;;;62.40;44.20;;;;;;;-0.15;71.75;100206.25;105227;1270;75768;-73
2022/03/14 05:53:31;;;;;;;62.80;42.00;;;;;;;-0.04;71.42;100207.27;105254;1270;70217;-73
2022/03/14 05:55:58;;;;;;;61.90;44.00;;;;;;;0.03;71.15;100209.84;105227;1270;73405;-72
2022/03/14 05:58:25;;;;;;;66.60;43.10;;;;;;;0.05;70.94;100208.79;105216;1270;62070;-75
2022/03/14 06:00:52;;;;;;;57.50;39.10;;;;;;;0.01;71.03;100206.18;105252;1270;62099;-73
2022/03/14 06:03:20;;;;;;;58.30;40.30;;;;;;;-0.09;71.09;100210.77;105388;1270;76694;-73
2022/03/14 06:05:48;;;;;;;68.20;44.00;;;;;;;-0.18;71.10;100210.98;105244;1270;70372;-72
2022/03/14 06:08:15;;;;;;;61.20;41.20;;;;;;;-0.26;71.20;100210.65;105226;1270;73115;-74
2022/03/14 06:10:45;;;;;;;65.90;42.10;;;;;;;-0.28;71.21;100212.76;105227;1270;62201;-74
2022/03/14 06:13:15;;;;;;;56.50;38.20;;;;;;;-0.30;71.26;100213.27;105269;1270;62455;-74
2022/03/14 06:15:42;;;;;;;63.40;40.90;;;;;;;-0.34;71.23;100216.10;105216;1270;75611;-73
2022/03/14 06:18:09;;;;;;;58.40;40.40;;;;;;;-0.36;71.24;100219.77;105219;1270;69733;-73
2022/03/14 06:20:35;;;;;;;69.90;43.40;;;;;;;-0.38;71.27;100216.81;105223;1270;61977;-72
2022/03/14 06:23:02;;;;;;;65.20;43.70;;;;;;;-0.38;71.23;100221.00;105191;1270;61997;-73
2022/03/14 06:25:28;;;;;;;62.40;41.30;;;;;;;-0.37;71.29;100218.38;105187;1270;62086;-74
2022/03/14 06:27:55;;;;;;;62.20;41.00;;;;;;;-0.34;71.10;100224.48;105232;1270;77161;-73
2022/03/14 06:30:22;;;;;;;62.90;41.70;;;;;;;-0.30;71.19;100225.16;105295;1270;68822;-73
2022/03/14 06:32:50;;;;;;;68.20;43.50;;;;;;;-0.23;71.21;100230.57;105199;1270;74666;-74
2022/03/14 06:35:18;;;;;;;61.80;41.70;;;;;;;-0.14;71.15;100229.48;105213;1270;62403;-73
2022/03/14 06:37:45;;;;;;;67.30;43.60;;;;;;;-0.08;70.94;100224.58;105618;1270;62196;-73
2022/03/14 06:40:13;;;;;;;59.70;42.20;;;;;;;-0.03;70.82;100223.50;105108;1270;75299;-74
2022/03/14 06:42:41;;;;;;;67.10;44.70;;;;;;;0.01;70.79;100221.73;105259;1270;69100;-74
2022/03/14 06:45:11;;;;;;;67.60;45.30;;;;;;;0.07;70.61;100225.38;105234;1269;72876;-74
2022/03/14 06:47:38;;;;;;;70.50;45.70;;;;;;;0.13;70.46;100226.58;105261;1270;62725;-72
2022/03/14 06:50:06;;;;;;;75.60;47.00;;;;;;;0.20;70.27;100226.70;105162;1270;62803;-73
2022/03/14 06:52:33;;;;;;;76.00;47.80;;;;;;;0.29;70.38;100229.30;105374;1269;76172;-74
2022/03/14 06:55:00;;;;;;;68.40;44.70;;;;;;;0.36;69.98;100224.00;105259;1270;68979;-74
2022/03/14 06:57:26;;;;;;;67.00;42.90;;;;;;;0.43;69.81;100226.92;105275;1270;73091;-74
2022/03/14 06:59:53;;;;;;;61.00;42.30;;;;;;;0.51;69.48;100223.75;105212;1270;62174;-74
2022/03/14 07:02:20;;;;;;;62.60;41.90;;;;;;;0.61;69.47;100230.15;105244;1270;62123;-74
2022/03/14 07:04:46;;;;;;;59.60;40.80;;;;;;;0.73;69.07;100229.02;105219;1270;62207;-74
2022/03/14 07:07:13;;;;;;;66.10;44.10;;;;;;;0.82;68.87;100237.70;105232;1270;69470;-74
2022/03/14 07:09:40;;;;;;;63.80;42.00;;;;;;;0.91;68.61;100231.85;105246;1270;62080;-74
2022/03/14 07:12:11;;;;;;;66.00;43.80;;;;;;;0.99;68.41;100232.66;105244;1270;62149;-74
2022/03/14 07:14:37;;;;;;;68.10;44.20;;;;;;;1.07;68.18;100230.86;105342;1270;62337;-73
2022/03/14 07:17:04;;;;;;;64.70;43.80;;;;;;;1.14;68.04;100232.89;105223;1270;75958;-74
2022/03/14 07:19:32;;;;;;;62.00;42.90;;;;;;;1.18;67.48;100233.91;104917;1274;69152;-73
2022/03/14 07:21:59;;;;;;;66.00;44.30;;;;;;;1.22;67.30;100234.41;104920;1274;74381;-73
2022/03/14 07:24:25;;;;;;;67.20;43.70;;;;;;;1.27;67.12;100238.20;104897;1274;62156;-74
2022/03/14 07:26:52;;;;;;;64.40;43.90;;;;;;;1.34;67.05;100238.31;104897;1274;62266;-75
2022/03/14 07:29:18;;;;;;;65.10;43.50;;;;;;;1.43;66.97;100242.61;104900;1274;62475;-74
2022/03/14 07:31:45;;;;;;;63.50;43.40;;;;;;;1.53;66.76;100241.81;104899;1274;67309;-75
2022/03/14 07:34:12;;;;;;;59.60;40.70;;;;;;;1.62;66.71;100241.53;104869;1274;62041;-76
2022/03/14 07:36:40;;;;;;;61.30;43.00;;;;;;;1.72;66.12;100244.41;104926;1274;62163;-75
2022/03/14 07:39:07;;;;;;;64.00;41.70;;;;;;;1.81;65.89;100242.56;104893;1274;62205;-76
2022/03/14 07:41:33;;;;;;;53.60;37.70;;;;;;;1.92;65.75;100245.59;104865;1274;77243;-74
2022/03/14 07:44:00;;;;;;;57.00;39.50;;;;;;;2.03;65.29;100251.08;104703;1276;62048;-75
2022/03/14 07:46:28;;;;;;;61.90;42.90;;;;;;;2.13;65.09;100248.66;104842;1274;72742;-75
2022/03/14 07:48:54;;;;;;;60.30;41.10;;;;;;;2.24;64.73;100252.73;104874;1274;62028;-76
2022/03/14 07:51:21;;;;;;;61.60;42.60;;;;;;;2.34;64.38;100252.44;105134;1270;62028;-77
2022/03/14 07:53:47;;;;;;;61.70;42.20;;;;;;;2.44;64.15;100248.61;105228;1269;76864;-76
2022/03/14 07:56:15;;;;;;;60.80;42.00;;;;;;;2.53;63.88;100247.27;105233;1270;62063;-76
2022/03/14 07:58:42;;;;;;;57.10;41.80;;;;;;;2.63;63.78;100240.99;105238;1270;74517;-76
2022/03/14 08:01:09;;;;;;;59.10;41.40;;;;;;;2.73;63.34;100239.95;105229;1270;62067;-75
2022/03/14 08:03:35;;;;;;;57.30;40.60;;;;;;;2.82;63.09;100242.11;105246;1270;62189;-75
2022/03/14 08:06:02;;;;;;;56.60;39.50;;;;;;;2.92;62.85;100240.55;105224;1270;62120;-75
2022/03/14 08:08:29;;;;;;;56.90;41.30;;;;;;;3.02;62.63;100241.96;105305;1270;69382;-75
2022/03/14 08:10:55;;;;;;;55.50;39.50;;;;;;;3.09;62.39;100242.73;105244;1270;62155;-76
2022/03/14 08:13:22;;;;;;;57.80;40.40;;;;;;;3.16;62.23;100237.35;104991;1270;62564;-75
2022/03/14 08:15:49;;;;;;;54.80;40.50;;;;;;;3.27;62.01;100237.52;105261;1269;62063;-74
2022/03/14 08:18:15;;;;;;;60.20;42.00;;;;;;;3.38;61.76;100243.99;105261;1270;75508;-76
2022/03/14 08:20:42;;;;;;;59.40;40.00;;;;;;;3.49;61.53;100241.52;105013;1270;68642;-77
2022/03/14 08:23:08;;;;;;;57.40;41.20;;;;;;;3.59;61.16;100242.05;105194;1269;72588;-76
2022/03/14 08:25:35;;;;;;;55.60;40.60;;;;;;;3.68;61.13;100245.38;105063;1270;62090;-76
2022/03/14 08:28:03;;;;;;;55.50;39.10;;;;;;;3.83;60.83;100245.64;105263;1270;61947;-76
2022/03/14 08:30:29;;;;;;;62.40;45.20;;;;;;;3.95;60.59;100247.16;105256;1270;76217;-76
2022/03/14 08:32:57;;;;;;;55.40;39.60;;;;;;;4.10;60.35;100244.41;105304;1270;62077;-76
2022/03/14 08:35:26;;;;;;;54.00;38.80;;;;;;;4.22;60.01;100245.38;105099;1270;73182;-75
2022/03/14 08:37:54;;;;;;;54.20;41.60;;;;;;;4.35;59.66;100250.55;105345;1270;62115;-77
2022/03/14 08:40:23;;;;;;;51.30;36.50;;;;;;;4.46;59.43;100251.89;105396;1270;62111;-75
2022/03/14 08:42:52;;;;;;;56.00;39.60;;;;;;;4.57;58.86;100247.61;105453;1270;75656;-75
2022/03/14 08:45:20;;;;;;;55.60;39.90;;;;;;;4.66;58.42;100248.81;105548;1270;69242;-77
2022/03/14 08:47:46;;;;;;;51.60;36.40;;;;;;;4.80;58.38;100243.40;105319;1269;72628;-76
2022/03/14 08:50:14;;;;;;;55.60;40.50;;;;;;;4.94;58.01;100237.44;105305;1270;62190;-75
2022/03/14 08:52:42;;;;;;;54.30;40.20;;;;;;;5.09;57.79;100234.42;105354;1270;61941;-75
2022/03/14 08:55:09;;;;;;;53.00;39.40;;;;;;;5.23;57.44;100235.81;105308;1270;76119;-77
2022/03/14 08:57:35;;;;;;;51.10;36.90;;;;;;;5.36;57.04;100239.04;105299;1270;70379;-75
2022/03/14 09:00:04;;;;;;;46.70;36.50;;;;;;;5.46;56.35;100237.70;105273;1270;62089;-76
2022/03/14 09:02:30;;;;;;;50.20;36.30;;;;;;;5.61;56.23;100239.61;105242;1270;62117;-76
2022/03/14 09:04:57;;;;;;;52.40;37.60;;;;;;;5.72;55.91;100233.85;105239;1270;62748;-76
2022/03/14 09:07:28;;;;;;;54.30;36.80;;;;;;;5.83;55.61;100235.84;105228;1270;62060;-76
2022/03/14 09:10:03;;;;;;;48.00;35.20;;;;;;;5.95;55.25;100237.83;105250;1270;67616;-76
2022/03/14 09:12:33;;;;;;;44.70;31.10;;;;;;;6.09;54.81;100235.34;104965;1270;73222;-75
2022/03/14 09:15:00;;;;;;;47.20;34.60;;;;;;;6.24;54.01;100239.48;105357;1270;61951;-77
2022/03/14 09:17:26;;;;;;;52.00;35.80;;;;;;;6.40;53.91;100237.42;105318;1270;62066;-76
2022/03/14 09:19:54;;;;;;;49.40;34.60;;;;;;;6.50;53.58;100238.35;105321;1270;77027;-76
2022/03/14 09:22:22;;;;;;;43.30;31.80;;;;;;;6.60;53.17;100240.34;105285;1270;70090;-75
2022/03/14 09:24:48;;;;;;;37.60;27.80;;;;;;;6.71;52.51;100238.59;105267;1270;73590;-75
2022/03/14 09:27:15;;;;;;;44.10;30.10;;;;;;;6.82;51.84;100235.06;105266;1270;62463;-75
2022/03/14 09:29:42;;;;;;;39.10;29.00;;;;;;;6.96;51.60;100238.84;105278;1270;62265;-77
2022/03/14 09:32:10;;;;;;;34.80;27.00;;;;;;;7.10;50.86;100240.71;105298;1270;76030;-76
2022/03/14 09:34:37;;;;;;;34.70;25.70;;;;;;;7.23;50.40;100244.00;105310;1270;68312;-76
2022/03/14 09:37:03;;;;;;;34.30;26.00;;;;;;;7.34;49.96;100244.16;105222;1270;73585;-75
2022/03/14 09:39:32;;;;;;;36.70;25.30;;;;;;;7.44;49.38;100240.80;105265;1270;62288;-76
2022/03/14 09:42:01;;;;;;;30.90;24.20;;;;;;;7.58;48.92;100239.62;105283;1270;62160;-76
2022/03/14 09:44:29;;;;;;;39.70;29.90;;;;;;;7.73;48.47;100239.27;105284;1270;74700;-76
2022/03/14 09:47:01;;;;;;;38.40;27.70;;;;;;;7.90;48.30;100238.16;105486;1270;69442;-75
2022/03/14 09:49:29;;;;;;;33.30;25.80;;;;;;;8.04;47.99;100239.73;105283;1270;74505;-75
2022/03/14 09:51:56;;;;;;;35.40;24.70;;;;;;;8.16;47.55;100241.77;105297;1270;62088;-75
2022/03/14 09:54:23;;;;;;;34.10;25.50;;;;;;;8.28;47.52;100237.77;105074;1270;62167;-75
2022/03/14 09:56:50;;;;;;;34.60;26.10;;;;;;;8.46;47.50;100239.47;105307;1270;75118;-76
2022/03/14 09:59:17;;;;;;;35.60;23.30;;;;;;;8.61;46.41;100236.24;104992;1270;68779;-75
2022/03/14 10:01:43;;;;;;;30.50;22.40;;;;;;;8.71;46.35;100235.48;105256;1270;74422;-76
2022/03/14 10:04:10;;;;;;;31.60;23.70;;;;;;;8.87;46.41;100230.41;105273;1270;62057;-76
2022/03/14 10:06:38;;;;;;;27.60;21.20;;;;;;;9.03;45.69;100232.79;105280;1270;61980;-77
2022/03/14 10:09:06;;;;;;;33.70;26.40;;;;;;;9.14;45.20;100233.75;105327;1270;75948;-75
2022/03/14 10:11:34;;;;;;;32.50;24.10;;;;;;;9.27;44.24;100233.73;105248;1270;70470;-75
2022/03/14 10:14:02;;;;;;;26.90;20.10;;;;;;;9.38;44.13;100230.42;105268;1270;72192;-76
2022/03/14 10:16:29;;;;;;;27.80;21.70;;;;;;;9.56;43.66;100230.39;105263;1270;62049;-77
2022/03/14 10:18:58;;;;;;;30.60;22.40;;;;;;;9.65;43.27;100229.45;105295;1270;62088;-75
2022/03/14 10:21:34;;;;;;;26.30;20.80;;;;;;;9.71;42.99;100224.43;105388;1270;73893;-76
2022/03/14 10:24:12;;;;;;;31.10;21.00;;;;;;;9.77;42.49;100226.48;105331;1270;70440;-76
2022/03/14 10:26:44;;;;;;;24.40;20.20;;;;;;;9.86;42.20;100226.05;105260;1270;74446;-75
2022/03/14 10:29:14;;;;;;;23.30;18.50;;;;;;;9.96;41.51;100222.26;105304;1270;61964;-75
2022/03/14 10:31:43;;;;;;;25.50;19.60;;;;;;;9.98;41.30;100222.34;105303;1270;62605;-76
2022/03/14 10:34:15;;;;;;;21.40;14.60;;;;;;;10.06;41.23;100220.40;105029;1270;77208;-75
2022/03/14 10:36:45;;;;;;;19.20;12.80;;;;;;;10.21;41.06;100218.47;105547;1270;69449;-76
2022/03/14 10:39:19;;;;;;;14.40;11.70;;;;;;;10.35;40.85;100218.05;105270;1270;73107;-75
2022/03/14 10:42:07;;;;;;;16.10;12.90;;;;;;;10.45;39.89;100217.20;105361;1270;62066;-77
2022/03/14 10:44:36;;;;;;;15.00;12.70;;;;;;;10.48;39.30;100214.59;105383;1270;62063;-76
2022/03/14 10:47:06;;;;;;;17.50;11.90;;;;;;;10.51;39.34;100210.52;105472;1270;76124;-76
2022/03/14 10:49:35;;;;;;;17.00;11.40;;;;;;;10.59;39.46;100210.00;105522;1270;70237;-75
2022/03/14 10:52:05;;;;;;;17.80;13.30;;;;;;;10.68;39.21;100199.98;105323;1270;71292;-75
2022/03/14 10:54:39;;;;;;;17.50;12.30;;;;;;;10.76;39.04;100202.39;105264;1270;62375;-75
2022/03/14 10:57:11;;;;;;;18.50;13.10;;;;;;;10.83;38.83;100199.23;105273;1270;62423;-76
2022/03/14 10:59:39;;;;;;;17.00;13.00;;;;;;;10.83;38.07;100195.33;105332;1270;76952;-77
2022/03/14 11:02:11;;;;;;;17.90;14.00;;;;;;;10.81;38.14;100195.76;105323;1270;69200;-75
2022/03/14 11:04:40;;;;;;;20.70;14.60;;;;;;;10.80;37.74;100192.79;105073;1270;73364;-76
2022/03/14 11:07:07;;;;;;;16.30;13.50;;;;;;;10.81;37.69;100193.83;105312;1270;62197;-76